Etzikom, Canada
Current Conditions -  °F | °C
As of 3:00 PM on Friday 24 Oct 2014 (Local Time) from CYXH Reporting Station
Broken Clouds Broken Clouds  
Wind Chill: 59°   Ceiling: 28000
Heat Index: 59°   Visibility: 30mi
Dew Point: 23°   Wind: 17mph
Humidity: 25%   Direction: 280°W
Pressure: 29.93"   Gusts: 28mph
Location:  49.48°N, 111.1°W
Report Text: CYXH 242100Z 28015G24KT 30SM BKN280 15/M05 A2993 RMK CI6 SLP142 DENSITY ALT 2800FT
Loading
Personal Weather Stations






























Interactive Weather Map
Tropical Storm Tracking
New forecast layout! Learn more

10-Day Weather Forecast

Advertisements
Track Severe Weather on mobile